LGKO/KGS METAR and TAF weather

Enter ICAO airport designator
Station Type Date Time Source
LGKO METAR 2021/09/24 01:50 UTC NOAA

LGKO 240150Z 35015G25KT 9999 FEW020 16/10 Q1014


Station Type Date Time Source
LGKO Decoded METAR 2021/09/24 01:50 UTC NOAA

Kos Airport , Greece (LGKO) 36-47N 027-04E
Sep 23, 2021 - 09:50 PM EDT / 2021.09.24 0150 UTC
Wind: from the N (350 degrees) at 17 MPH (15 KT) gusting to 29 MPH (25 KT):0
Visibility: greater than 7 mile(s):0
Sky conditions: mostly clear
Temperature: 60 F (16 C)
Dew Point: 50 F (10 C)
Relative Humidity: 67%
Pressure (altimeter): 29.94 in. Hg (1014 hPa)
ob: LGKO 240150Z 35015G25KT 9999 FEW020 16/10 Q1014
cycle: 2

Station Type Date Time Source
LGKO TAF 2021/09/23 18:27 UTC NOAA

TAF LGKO 231700Z 2318/2418 35024KT 9999 FEW020
TEMPO 2318/2412 35026G37KT

Example: see airport list